Time;durP1;ratioP1;P1;durP2;ratioP2;P2;SDS_P1;SDS_P2;PMS_P1;PMS_P2;Temp;Humidity;BMP_temperature;BMP_pressure;BME280_temperature;BME280_humidity;BME280_pressure;Samples;Min_cycle;Max_cycle;Signal;HPM_P1;HPM_P2
2022/03/20 00:00:17;;;;;;;11.35;5.28;;;;;;;-4.74;74.09;61523.91;5046801;28;20232;-75
2022/03/20 00:02:44;;;;;;;11.68;5.15;;;;;;;-4.74;74.39;61524.41;5038422;28;20226;-76
2022/03/20 00:05:12;;;;;;;13.65;5.80;;;;;;;-4.70;74.06;61527.97;5026917;28;20203;-75
2022/03/20 00:07:39;;;;;;;9.82;5.68;;;;;;;-4.73;74.31;61522.94;5031927;28;20245;-75
2022/03/20 00:10:08;;;;;;;12.00;6.78;;;;;;;-4.78;75.01;61520.31;5027281;28;20203;-75
2022/03/20 00:12:35;;;;;;;9.13;5.32;;;;;;;-4.81;75.15;61514.78;5027904;28;20411;-75
2022/03/20 00:15:03;;;;;;;6.95;5.07;;;;;;;-5.26;78.35;61468.91;5026635;28;20548;-75
2022/03/20 00:17:30;;;;;;;9.88;5.43;;;;;;;-5.36;79.93;61458.72;5028989;28;20230;-75
2022/03/20 00:19:57;;;;;;;11.48;5.95;;;;;;;-5.23;80.18;61473.94;5026675;28;20414;-75
2022/03/20 00:22:27;;;;;;;10.27;5.97;;;;;;;-5.42;81.80;61449.63;5026221;28;20230;-76
2022/03/20 00:24:54;;;;;;;12.98;5.88;;;;;;;-5.42;82.39;61449.63;5026520;28;20235;-75
2022/03/20 00:27:20;;;;;;;10.77;5.97;;;;;;;-5.48;83.03;61448.44;5025258;28;20218;-76
2022/03/20 00:29:47;;;;;;;13.95;6.47;;;;;;;-5.22;82.01;61470.00;5031509;28;20206;-75
2022/03/20 00:32:14;;;;;;;10.43;5.63;;;;;;;-5.24;81.72;61472.91;5034545;28;20223;-75
2022/03/20 00:34:41;;;;;;;7.50;4.88;;;;;;;-5.15;81.89;61482.09;5039394;28;20198;-74
2022/03/20 00:37:09;;;;;;;7.43;5.50;;;;;;;-5.17;81.62;61480.56;5049707;28;20220;-75
2022/03/20 00:39:38;;;;;;;5.40;3.95;;;;;;;-5.18;82.37;61479.56;5028330;28;20194;-75
2022/03/20 00:42:05;;;;;;;8.25;4.78;;;;;;;-5.16;82.39;61481.56;5027439;28;20238;-75
2022/03/20 00:44:32;;;;;;;7.63;5.15;;;;;;;-5.09;82.42;61493.19;5039766;28;20209;-76
2022/03/20 00:46:59;;;;;;;8.93;5.90;;;;;;;-5.13;83.07;61479.69;5034093;28;20218;-75
2022/03/20 00:49:26;;;;;;;4.63;4.10;;;;;;;-5.07;83.13;61490.75;5026941;28;20445;-75
2022/03/20 00:51:53;;;;;;;6.82;5.40;;;;;;;-5.03;83.05;61487.41;5026602;28;20218;-76
2022/03/20 00:54:20;;;;;;;7.72;5.18;;;;;;;-5.01;82.51;61496.88;5027664;28;20194;-75
2022/03/20 00:56:48;;;;;;;5.35;4.78;;;;;;;-4.88;82.55;61504.66;5026600;28;20262;-76
2022/03/20 00:59:15;;;;;;;8.48;5.22;;;;;;;-4.80;81.52;61512.81;5029419;28;20237;-75
2022/03/20 01:01:42;;;;;;;9.25;5.50;;;;;;;-4.75;81.07;61518.44;5033666;28;20236;-75
2022/03/20 01:04:09;;;;;;;5.55;5.00;;;;;;;-4.78;81.38;61515.38;5029070;28;20511;-76
2022/03/20 01:06:36;;;;;;;6.60;5.10;;;;;;;-4.78;82.42;61519.84;5028449;28;20199;-76
2022/03/20 01:09:03;;;;;;;5.35;4.85;;;;;;;-4.91;83.40;61504.59;5025118;28;20207;-75
2022/03/20 01:11:30;;;;;;;5.65;4.88;;;;;;;-5.01;84.16;61491.41;5038341;28;20206;-75
2022/03/20 01:13:58;;;;;;;5.25;4.72;;;;;;;-5.01;84.03;61496.38;5045733;28;20256;-76
2022/03/20 01:16:25;;;;;;;6.28;4.25;;;;;;;-5.01;82.79;61498.84;5025629;28;20202;-76
2022/03/20 01:18:52;;;;;;;8.38;5.60;;;;;;;-5.00;82.13;61492.41;5025917;28;20206;-76
2022/03/20 01:21:19;;;;;;;6.50;4.75;;;;;;;-5.05;82.90;61487.31;5043423;28;20279;-76
2022/03/20 01:23:46;;;;;;;5.03;4.22;;;;;;;-4.93;83.28;61499.56;5045362;28;20225;-76
2022/03/20 01:26:13;;;;;;;6.03;4.55;;;;;;;-4.97;82.72;61500.94;5031067;28;20413;-75
2022/03/20 01:28:39;;;;;;;4.90;4.38;;;;;;;-4.95;82.29;61502.47;5024558;28;20237;-75
2022/03/20 01:31:08;;;;;;;7.93;4.88;;;;;;;-4.91;81.91;61504.59;5045475;28;20205;-75
2022/03/20 01:33:35;;;;;;;9.82;6.38;;;;;;;-4.97;81.81;61497.97;5043130;28;20220;-75
2022/03/20 01:36:02;;;;;;;8.27;5.60;;;;;;;-5.04;81.77;61488.84;5025076;28;20344;-75
2022/03/20 01:38:29;;;;;;;10.88;5.82;;;;;;;-5.02;81.49;61495.84;5048058;28;20249;-75
2022/03/20 01:40:56;;;;;;;9.88;6.60;;;;;;;-5.09;81.65;61483.25;5052492;28;20221;-75
2022/03/20 01:43:23;;;;;;;12.75;6.60;;;;;;;-5.13;81.85;61479.69;5026366;28;20282;-76
2022/03/20 01:45:49;;;;;;;9.45;6.10;;;;;;;-5.24;82.39;61470.94;5025932;28;20210;-76
2022/03/20 01:48:18;;;;;;;11.82;6.35;;;;;;;-5.22;82.10;61474.94;5024239;28;20223;-75
2022/03/20 01:50:45;;;;;;;6.40;5.18;;;;;;;-5.26;81.90;61468.38;5022954;28;20207;-75
2022/03/20 01:53:12;;;;;;;6.05;5.15;;;;;;;-5.28;81.15;61463.88;5026864;28;20590;-76
2022/03/20 01:55:39;;;;;;;6.13;4.95;;;;;;;-5.23;80.31;61464.03;5031781;28;20248;-76
2022/03/20 01:58:06;;;;;;;6.95;4.97;;;;;;;-5.24;80.36;61463.00;5026035;28;20214;-75
2022/03/20 02:00:33;;;;;;;6.07;4.47;;;;;;;-5.19;80.52;61473.03;5024974;28;20198;-74
2022/03/20 02:03:00;;;;;;;5.18;4.65;;;;;;;-5.18;80.35;61479.03;5024808;28;20440;-75
2022/03/20 02:05:30;;;;;;;5.57;3.65;;;;;;;-5.14;79.69;61483.63;5027220;28;20261;-76
2022/03/20 02:08:00;;;;;;;5.70;4.00;;;;;;;-5.15;79.41;61480.13;5023492;28;20214;-76
2022/03/20 02:10:35;;;;;;;4.90;4.40;;;;;;;-5.09;78.86;61483.75;5024549;28;20222;-76
2022/03/20 02:13:02;;;;;;;3.22;3.03;;;;;;;-5.03;74.91;61496.81;5024669;28;20281;-76
2022/03/20 02:15:29;;;;;;;3.85;3.40;;;;;;;-5.01;71.83;61496.38;5025015;28;20424;-76
2022/03/20 02:17:57;;;;;;;5.40;3.88;;;;;;;-4.95;70.19;61495.53;5026447;28;20227;-76
2022/03/20 02:20:24;;;;;;;4.00;3.60;;;;;;;-4.95;69.43;61503.00;5028094;28;20252;-76
2022/03/20 02:22:52;;;;;;;3.80;3.30;;;;;;;-4.92;69.33;61498.59;5031702;28;20237;-75
2022/03/20 02:25:19;;;;;;;5.35;3.92;;;;;;;-4.92;70.29;61505.56;5040021;28;20211;-75
2022/03/20 02:27:46;;;;;;;4.22;3.50;;;;;;;-4.97;69.54;61503.44;5026260;28;20223;-76
2022/03/20 02:30:15;;;;;;;3.50;3.20;;;;;;;-5.00;69.47;61497.91;5026553;28;20199;-76
2022/03/20 02:32:43;;;;;;;4.03;2.72;;;;;;;-5.04;70.83;61486.38;5036729;28;20453;-76
2022/03/20 02:35:14;;;;;;;6.03;3.92;;;;;;;-5.06;71.58;61491.78;5033661;28;20198;-76
2022/03/20 02:37:42;;;;;;;5.03;3.88;;;;;;;-5.06;71.92;61491.78;5026906;28;20273;-76
2022/03/20 02:40:11;;;;;;;3.60;3.25;;;;;;;-5.04;72.29;61488.84;5027659;28;20199;-76
2022/03/20 02:42:40;;;;;;;3.90;3.60;;;;;;;-5.02;73.10;61497.84;5025073;28;20235;-76
2022/03/20 02:45:09;;;;;;;4.13;3.42;;;;;;;-4.95;72.48;61502.47;5023936;28;20207;-76
2022/03/20 02:47:38;;;;;;;3.92;3.60;;;;;;;-4.93;72.54;61499.56;5024976;28;20265;-76
2022/03/20 02:50:08;;;;;;;4.00;3.17;;;;;;;-4.86;71.87;61507.22;5024434;28;20516;-77
2022/03/20 02:52:47;;;;;;;6.15;3.38;;;;;;;-4.83;71.20;61514.72;5023584;28;20233;-77
2022/03/20 02:55:18;;;;;;;4.38;3.30;;;;;;;-4.89;71.30;61509.13;5024899;28;20217;-77
2022/03/20 02:57:47;;;;;;;6.75;4.05;;;;;;;-4.77;70.79;61518.38;5025126;28;20249;-76
2022/03/20 03:00:17;;;;;;;4.43;3.90;;;;;;;-4.86;71.36;61511.66;5034186;28;20222;-76
2022/03/20 03:02:45;;;;;;;5.72;4.40;;;;;;;-4.73;70.88;61527.41;5022156;28;20254;-77
2022/03/20 03:05:14;;;;;;;4.78;3.83;;;;;;;-4.66;70.69;61532.06;5024163;28;20258;-76
2022/03/20 03:13:14;;;;;;;4.40;3.78;;;;;;;-4.71;71.08;61526.94;5028785;28;20230;-76
2022/03/20 03:15:42;;;;;;;4.57;3.40;;;;;;;-4.71;71.63;61527.47;5030734;28;20222;-77
2022/03/20 03:18:10;;;;;;;5.32;3.42;;;;;;;-4.65;71.52;61533.09;5031371;28;20269;-76
2022/03/20 03:20:37;;;;;;;5.57;3.70;;;;;;;-4.68;71.35;61533.00;5029834;28;20205;-77
2022/03/20 03:23:06;;;;;;;9.13;4.32;;;;;;;-4.65;70.42;61535.56;5032891;28;20226;-77
2022/03/20 03:25:36;;;;;;;3.83;3.50;;;;;;;-4.60;70.78;61535.19;5026483;28;20198;-78
2022/03/20 03:28:04;;;;;;;5.85;4.32;;;;;;;-4.58;69.90;61537.22;5027860;28;20388;-77
2022/03/20 03:30:31;;;;;;;4.47;3.47;;;;;;;-4.57;69.72;61541.25;5028454;28;20203;-77
2022/03/20 03:32:58;;;;;;;5.22;3.13;;;;;;;-4.55;69.02;61540.78;5028620;28;20593;-76
2022/03/20 03:35:42;;;;;;;5.97;4.15;;;;;;;-4.59;68.43;61541.69;5032327;28;20198;-76
2022/03/20 03:38:11;;;;;;;5.70;4.40;;;;;;;-4.54;68.29;61531.91;5036871;28;20235;-76
2022/03/20 03:40:40;;;;;;;5.13;3.30;;;;;;;-4.55;67.66;61540.28;5026397;28;20240;-76
2022/03/20 03:43:08;;;;;;;4.55;3.60;;;;;;;-4.63;67.64;61532.13;5007469;28;20496;-76
2022/03/20 03:45:35;;;;;;;4.03;3.05;;;;;;;-4.68;67.90;61530.53;5039102;28;20385;-76
2022/03/20 03:48:03;;;;;;;4.80;3.17;;;;;;;-4.64;67.75;61528.63;5028671;28;20226;-76
2022/03/20 03:50:30;;;;;;;5.43;3.97;;;;;;;-4.76;68.97;61514.41;5027249;28;20199;-77
2022/03/20 03:52:56;;;;;;;3.67;3.30;;;;;;;-4.79;69.17;61516.31;5027407;28;20254;-77
2022/03/20 03:55:23;;;;;;;5.38;4.00;;;;;;;-4.84;69.55;61514.22;5032569;28;20203;-76
2022/03/20 03:57:52;;;;;;;9.85;3.90;;;;;;;-4.85;69.68;61507.72;5027131;28;20214;-76
2022/03/20 04:00:20;;;;;;;5.60;4.43;;;;;;;-4.85;70.39;61510.69;5029364;28;20199;-78
2022/03/20 04:02:49;;;;;;;6.95;5.28;;;;;;;-4.79;71.56;61519.31;5031566;28;20284;-77
2022/03/20 04:05:17;;;;;;;5.72;4.85;;;;;;;-4.81;72.21;61511.78;5035485;28;20199;-75
2022/03/20 04:07:44;;;;;;;7.03;5.13;;;;;;;-4.83;73.25;61509.75;5029653;28;20218;-76
2022/03/20 04:10:11;;;;;;;8.60;5.00;;;;;;;-4.88;71.78;61509.63;5037456;28;20195;-76
2022/03/20 04:12:40;;;;;;;4.47;3.20;;;;;;;-4.83;68.80;61510.25;5041751;28;20464;-76
2022/03/20 04:15:09;;;;;;;4.47;3.03;;;;;;;-4.78;66.11;61514.88;5030635;28;20215;-76
2022/03/20 04:17:37;;;;;;;3.95;3.15;;;;;;;-4.79;65.61;61516.31;5033251;28;20231;-77
2022/03/20 04:20:06;;;;;;;4.45;2.88;;;;;;;-4.80;68.99;61513.31;5028014;28;20210;-76
2022/03/20 04:22:35;;;;;;;6.85;2.88;;;;;;;-4.79;68.27;61521.78;5009378;28;20254;-75
2022/03/20 04:25:02;;;;;;;2.72;2.53;;;;;;;-4.84;65.94;61509.25;5026655;28;20207;-76
2022/03/20 04:27:30;;;;;;;3.58;3.25;;;;;;;-4.83;65.83;61512.22;5025793;28;20554;-76
2022/03/20 04:29:57;;;;;;;4.22;2.90;;;;;;;-4.96;69.03;61501.47;5032992;28;20198;-76
2022/03/20 04:32:25;;;;;;;3.97;3.15;;;;;;;-5.09;71.96;61485.75;5046564;28;20217;-76
2022/03/20 04:34:52;;;;;;;4.75;3.97;;;;;;;-5.00;69.62;61494.91;5027648;28;20197;-76
2022/03/20 04:37:21;;;;;;;4.20;3.50;;;;;;;-5.03;71.30;61494.84;5024357;28;20218;-76
2022/03/20 04:39:48;;;;;;;5.25;3.35;;;;;;;-5.01;71.93;61494.41;5039006;28;20198;-78
2022/03/20 04:42:15;;;;;;;2.83;2.60;;;;;;;-4.98;70.69;61496.94;5038890;28;20284;-77
2022/03/20 04:44:43;;;;;;;2.70;2.50;;;;;;;-4.90;69.30;61502.63;5026685;28;20205;-77
2022/03/20 04:58:29;;;;;;;7.40;4.68;;;;;;;-4.93;70.99;61492.63;5023677;28;20286;-76
2022/03/20 04:58:31;;;;;;;4.65;3.85;;;;;;;-4.80;73.52;61510.84;5034181;28;20225;-77
2022/03/20 05:01:00;;;;;;;7.03;4.30;;;;;;;-4.66;71.43;61532.06;5027683;28;20336;-76
2022/03/20 05:03:28;;;;;;;3.97;3.35;;;;;;;-4.49;68.59;61541.97;5015822;28;20488;-77
2022/03/20 05:05:56;;;;;;;5.18;3.50;;;;;;;-4.39;68.98;61556.59;5031033;28;20206;-77
2022/03/20 05:08:23;;;;;;;4.05;3.70;;;;;;;-4.33;68.53;61562.75;5007280;28;20222;-76
2022/03/20 05:13:36;;;;;;;3.45;3.15;;;;;;;-4.09;66.49;61584.75;5026061;28;20232;-76
2022/03/20 05:16:04;;;;;;;4.63;3.30;;;;;;;-3.94;65.87;61605.03;5041937;28;20446;-76
2022/03/20 05:18:32;;;;;;;4.25;3.25;;;;;;;-3.85;66.04;61606.75;5036879;28;20215;-76
2022/03/20 05:21:01;;;;;;;4.70;3.70;;;;;;;-3.71;65.14;61626.03;5026512;28;20258;-76
2022/03/20 05:23:27;;;;;;;3.75;3.38;;;;;;;-3.53;63.95;61639.41;5026556;28;20434;-76
2022/03/20 05:25:54;;;;;;;4.40;3.03;;;;;;;-3.33;62.69;61661.81;5033194;28;20209;-77
2022/03/20 05:28:21;;;;;;;3.08;2.88;;;;;;;-3.26;62.78;61664.50;5026333;28;20261;-76
2022/03/20 05:30:50;;;;;;;4.00;3.15;;;;;;;-3.13;60.97;61677.78;5024945;28;20207;-79
2022/03/20 05:33:17;;;;;;;9.68;3.50;;;;;;;-2.98;60.33;61695.06;5026348;28;20227;-77
2022/03/20 05:35:45;;;;;;;4.18;3.17;;;;;;;-2.91;59.29;61709.69;5029466;28;20203;-76
2022/03/20 05:38:13;;;;;;;3.63;3.17;;;;;;;-2.70;57.26;61724.22;5027796;28;20245;-78
2022/03/20 05:40:42;;;;;;;3.22;2.92;;;;;;;-2.64;55.99;61727.84;5026967;28;20252;-76
2022/03/20 05:43:09;;;;;;;3.33;3.03;;;;;;;-2.59;56.55;61742.91;5027444;28;20305;-78
2022/03/20 05:45:37;;;;;;;7.35;5.45;;;;;;;-2.41;60.67;61760.81;5037582;28;20199;-78
2022/03/20 05:48:05;;;;;;;10.20;6.15;;;;;;;-2.36;62.97;61760.94;5026206;28;20218;-77
2022/03/20 05:50:31;;;;;;;9.82;5.65;;;;;;;-2.26;64.05;61773.66;5025335;28;20203;-75
2022/03/20 05:52:58;;;;;;;6.35;5.65;;;;;;;-2.13;64.09;61779.47;5022917;28;20222;-78
2022/03/20 05:58:11;;;;;;;4.03;3.13;;;;;;;-2.00;56.24;61805.22;5024113;28;20269;-76
2022/03/20 06:00:41;;;;;;;6.68;3.03;;;;;;;-1.81;54.45;61809.19;5027056;28;20194;-76
2022/03/20 06:03:09;;;;;;;5.18;3.55;;;;;;;-1.66;54.31;61837.00;5026505;28;20443;-75
2022/03/20 06:05:36;;;;;;;5.43;3.55;;;;;;;-1.58;53.31;61843.22;5030573;28;20198;-76
2022/03/20 06:08:04;;;;;;;5.13;3.95;;;;;;;-1.57;53.74;61836.75;5030547;28;20230;-76
2022/03/20 06:10:33;;;;;;;4.57;2.95;;;;;;;-1.40;53.55;61859.13;5030151;28;20253;-76
2022/03/20 06:12:59;;;;;;;7.32;3.25;;;;;;;-1.23;52.62;61873.53;5044174;28;20219;-76
2022/03/20 06:15:26;;;;;;;3.55;2.92;;;;;;;-1.38;51.98;61858.69;5028258;28;20198;-76
2022/03/20 06:17:53;;;;;;;5.38;3.83;;;;;;;-1.41;52.03;61855.09;5027349;28;20225;-76
2022/03/20 06:20:20;;;;;;;6.53;4.13;;;;;;;-1.16;51.75;61875.69;5026434;28;20203;-75
2022/03/20 06:22:49;;;;;;;4.95;3.95;;;;;;;-1.04;52.04;61890.47;5027026;28;20265;-76
2022/03/20 06:25:16;;;;;;;5.05;4.18;;;;;;;-1.19;51.47;61880.63;5025986;28;20241;-75
2022/03/20 06:27:46;;;;;;;5.78;3.67;;;;;;;-1.17;51.67;61884.66;5025473;28;20276;-77
2022/03/20 06:30:14;;;;;;;5.18;3.35;;;;;;;-1.23;50.46;61876.53;5038226;28;20198;-75
2022/03/20 06:32:42;;;;;;;5.53;3.38;;;;;;;-1.14;50.71;61882.75;5024903;28;20214;-75
2022/03/20 06:35:10;;;;;;;3.55;3.28;;;;;;;-1.01;50.32;61903.53;5023782;28;20210;-76
2022/03/20 06:37:38;;;;;;;3.97;3.47;;;;;;;-1.16;50.32;61883.19;5027624;28;20277;-75
2022/03/20 06:40:06;;;;;;;9.45;3.55;;;;;;;-1.04;50.47;61892.97;5048474;28;20261;-76
2022/03/20 06:42:33;;;;;;;5.63;3.88;;;;;;;-0.92;50.80;61907.75;5036551;28;20222;-75
2022/03/20 06:45:03;;;;;;;6.97;4.35;;;;;;;-0.84;50.05;61915.94;5026451;28;20205;-76
2022/03/20 06:47:32;;;;;;;10.93;4.10;;;;;;;-0.77;49.76;61925.59;5024466;28;20488;-76
2022/03/20 06:49:59;;;;;;;6.90;3.83;;;;;;;-0.84;50.01;61920.94;5029635;28;20194;-76
2022/03/20 06:52:28;;;;;;;3.92;3.60;;;;;;;-0.51;49.95;61944.75;5032794;28;20391;-74
2022/03/20 06:54:56;;;;;;;10.75;4.93;;;;;;;-0.66;49.67;61936.38;5022427;28;20306;-75
2022/03/20 06:57:23;;;;;;;4.63;3.83;;;;;;;-0.47;50.29;61953.31;5024936;28;20222;-75
2022/03/20 06:59:50;;;;;;;5.97;4.07;;;;;;;-0.31;49.61;61970.22;5022897;28;20561;-75
2022/03/20 07:02:19;;;;;;;6.22;4.55;;;;;;;-0.49;49.96;61951.28;5020624;28;20265;-75
2022/03/20 07:04:47;;;;;;;4.70;4.13;;;;;;;-0.47;50.54;61955.81;5023527;28;20262;-75
2022/03/20 07:07:14;;;;;;;7.50;4.03;;;;;;;-0.46;49.42;61951.84;5022282;28;20321;-75
2022/03/20 07:09:41;;;;;;;4.88;4.40;;;;;;;-0.45;50.03;61955.38;5022187;28;20195;-77
2022/03/20 07:12:09;;;;;;;5.68;4.45;;;;;;;-0.26;49.62;61975.34;5023840;28;20218;-76
2022/03/20 07:14:36;;;;;;;6.35;4.70;;;;;;;-0.25;49.53;61976.38;5023582;28;20203;-78
2022/03/20 07:17:04;;;;;;;5.63;5.05;;;;;;;-0.18;50.22;61983.03;5025438;28;20226;-78
2022/03/20 07:19:33;;;;;;;4.55;4.05;;;;;;;0.06;50.30;62005.13;5020063;28;20423;-78
2022/03/20 07:22:00;;;;;;;6.55;4.90;;;;;;;0.03;49.55;62001.53;5026012;28;20218;-79
2022/03/20 07:24:27;;;;;;;7.35;4.20;;;;;;;0.00;49.28;61998.97;5029254;28;20280;-79
2022/03/20 07:29:38;;;;;;;6.68;4.65;;;;;;;0.09;48.28;62010.19;5029540;28;20202;-78
2022/03/20 07:32:07;;;;;;;4.50;4.10;;;;;;;0.28;48.17;62029.66;5032386;28;20272;-79
2022/03/20 07:34:36;;;;;;;5.47;4.45;;;;;;;0.19;47.44;62022.94;5024838;28;20199;-79
2022/03/20 07:37:04;;;;;;;5.00;4.50;;;;;;;0.13;47.82;62006.78;5023095;28;20225;-78
2022/03/20 07:39:32;;;;;;;7.40;4.47;;;;;;;0.31;48.20;62030.25;5024509;28;20205;-77
2022/03/20 07:41:59;;;;;;;7.35;4.35;;;;;;;0.38;47.16;62037.41;5029602;28;20234;-78
2022/03/20 07:44:29;;;;;;;5.70;4.10;;;;;;;0.37;47.80;62033.88;5027473;28;20318;-79
2022/03/20 07:46:56;;;;;;;4.63;3.92;;;;;;;0.37;48.18;62039.41;5025533;28;20225;-78
2022/03/20 07:49:23;;;;;;;7.72;4.68;;;;;;;0.47;47.51;62046.63;5028044;28;20194;-78
2022/03/20 07:51:53;;;;;;;7.50;5.03;;;;;;;0.43;47.70;62043.03;5031202;28;20239;-78
2022/03/20 07:54:20;;;;;;;5.38;4.13;;;;;;;0.61;47.71;62064.00;5024264;28;20202;-77
2022/03/20 07:56:47;;;;;;;4.60;3.95;;;;;;;0.41;47.70;62036.00;5026298;28;20261;-79
2022/03/20 07:59:16;;;;;;;9.20;4.72;;;;;;;0.56;47.57;62058.88;5024984;28;20203;-78
2022/03/20 08:01:43;;;;;;;5.28;4.22;;;;;;;0.79;47.97;62079.44;5024904;28;20199;-79
2022/03/20 08:04:10;;;;;;;4.88;4.38;;;;;;;0.90;47.65;62093.75;5029950;28;20242;-78
2022/03/20 08:06:37;;;;;;;4.20;3.65;;;;;;;1.03;46.73;62106.56;5026879;28;20370;-78
2022/03/20 08:09:06;;;;;;;4.95;4.45;;;;;;;0.88;46.53;62094.19;5039155;28;20208;-78
2022/03/20 08:11:33;;;;;;;5.10;4.03;;;;;;;0.71;46.14;62073.72;5026145;28;20261;-78
2022/03/20 08:14:00;;;;;;;5.78;5.15;;;;;;;0.81;47.22;62084.50;5030378;28;20203;-79
2022/03/20 08:16:29;;;;;;;4.53;4.13;;;;;;;0.92;45.07;62092.78;5030559;28;20224;-78
2022/03/20 08:18:56;;;;;;;7.25;4.85;;;;;;;1.09;45.87;62115.22;5029671;28;20398;-79
2022/03/20 08:21:24;;;;;;;6.25;4.35;;;;;;;1.14;45.33;62118.34;5026252;28;20199;-79
2022/03/20 08:23:51;;;;;;;5.07;4.55;;;;;;;1.15;45.13;62118.88;5021571;28;20226;-80
2022/03/20 08:26:19;;;;;;;8.15;4.28;;;;;;;1.34;44.73;62138.38;5033537;28;20229;-80
2022/03/20 08:28:46;;;;;;;5.35;4.75;;;;;;;1.29;44.34;62135.75;5031632;28;20311;-76
2022/03/20 08:31:13;;;;;;;5.68;4.78;;;;;;;1.11;44.12;62115.28;5018625;28;20235;-76
2022/03/20 08:33:41;;;;;;;9.05;4.35;;;;;;;0.99;44.54;62102.97;5010348;28;21104;-76
2022/03/20 08:36:08;;;;;;;5.38;4.60;;;;;;;1.36;45.08;62142.41;5021982;28;20274;-75
2022/03/20 08:38:36;;;;;;;6.53;4.05;;;;;;;1.58;45.80;62162.47;5027110;28;20226;-76
2022/03/20 08:41:03;;;;;;;6.30;4.03;;;;;;;1.66;44.70;62168.19;5027423;28;20203;-75
2022/03/20 08:43:32;;;;;;;7.10;4.28;;;;;;;1.50;43.59;62156.78;5031580;28;20391;-75
2022/03/20 08:45:59;;;;;;;11.80;4.55;;;;;;;1.74;43.66;62178.91;5032932;28;20222;-75
2022/03/20 08:48:25;;;;;;;4.13;3.58;;;;;;;1.85;44.23;62193.22;5039712;28;20218;-76
2022/03/20 08:50:52;;;;;;;3.67;3.30;;;;;;;2.14;42.86;62215.47;5031800;28;20222;-76
2022/03/20 08:53:20;;;;;;;4.22;3.58;;;;;;;2.00;42.35;62206.09;5030916;28;20229;-76
2022/03/20 08:55:48;;;;;;;4.57;4.05;;;;;;;2.01;42.70;62206.63;5034991;28;20213;-76
2022/03/20 08:58:15;;;;;;;5.00;4.43;;;;;;;1.98;42.39;62201.03;5033557;28;20214;-77
2022/03/20 09:00:43;;;;;;;3.78;3.47;;;;;;;1.99;41.61;62199.53;5032448;28;20198;-76
2022/03/20 09:03:12;;;;;;;4.53;4.13;;;;;;;2.09;41.67;62212.31;5034665;28;20276;-76
2022/03/20 09:05:39;;;;;;;4.47;3.88;;;;;;;1.97;42.20;62203.03;5026175;28;20199;-76
2022/03/20 09:08:06;;;;;;;3.95;3.28;;;;;;;2.18;41.96;62226.59;5024204;28;20227;-76
2022/03/20 09:10:33;;;;;;;6.97;5.05;;;;;;;2.17;42.56;62221.06;5024822;28;20210;-75
2022/03/20 09:13:01;;;;;;;14.48;4.88;;;;;;;2.11;43.01;62217.41;5046352;28;20281;-76
2022/03/20 09:15:30;;;;;;;7.45;4.22;;;;;;;2.38;41.63;62246.63;5056931;28;20202;-77
2022/03/20 09:20:44;;;;;;;6.65;4.15;;;;;;;2.08;40.79;62216.84;5029731;28;20208;-77
2022/03/20 09:23:12;;;;;;;7.50;4.20;;;;;;;2.34;42.37;62243.53;5028212;28;20263;-76
2022/03/20 09:25:39;;;;;;;4.00;3.70;;;;;;;2.46;41.11;62252.84;5027470;28;20199;-77
2022/03/20 09:28:07;;;;;;;6.05;3.97;;;;;;;2.74;42.08;62281.09;5026700;28;20413;-76
2022/03/20 09:30:36;;;;;;;5.40;3.70;;;;;;;2.68;41.82;62272.94;5032035;28;20213;-76
2022/03/20 09:33:05;;;;;;;5.72;4.00;;;;;;;2.94;41.96;62299.66;5025786;28;20684;-75
2022/03/20 09:35:33;;;;;;;7.30;4.25;;;;;;;3.04;39.14;62312.44;5023921;28;20252;-74
2022/03/20 09:38:00;;;;;;;4.78;3.80;;;;;;;3.16;39.00;62324.75;5025569;28;20265;-76
2022/03/20 09:40:27;;;;;;;4.03;3.63;;;;;;;3.22;38.11;62332.94;5030523;28;20488;-74
2022/03/20 09:42:54;;;;;;;5.90;4.30;;;;;;;2.84;38.41;62291.38;5024992;28;20221;-73
2022/03/20 09:45:21;;;;;;;5.38;4.32;;;;;;;2.81;38.47;62291.31;5016517;28;20249;-74
2022/03/20 09:47:48;;;;;;;4.13;3.83;;;;;;;2.71;37.67;62281.03;5026923;28;20265;-74
2022/03/20 09:50:17;;;;;;;4.40;3.58;;;;;;;2.91;37.72;62301.06;5044903;28;20237;-74
2022/03/20 09:52:44;;;;;;;3.75;3.47;;;;;;;3.04;37.94;62314.44;5042405;28;20210;-74
2022/03/20 09:55:12;;;;;;;5.63;4.10;;;;;;;3.17;38.09;62330.31;5024675;28;20202;-74
2022/03/20 09:57:38;;;;;;;8.80;4.00;;;;;;;3.36;37.56;62344.81;5031930;28;20238;-74
2022/03/20 10:00:11;;;;;;;6.30;4.57;;;;;;;3.36;37.28;62345.34;5044183;28;20521;-74
2022/03/20 10:02:38;;;;;;;4.20;3.90;;;;;;;3.46;36.33;62355.63;5032360;28;20217;-74
2022/03/20 10:05:07;;;;;;;4.53;4.10;;;;;;;3.64;36.46;62373.09;5019932;28;20242;-74
2022/03/20 10:07:40;;;;;;;7.15;4.32;;;;;;;3.76;36.92;62385.97;5026426;28;20249;-74
2022/03/20 10:10:17;;;;;;;5.10;3.88;;;;;;;3.77;36.62;62391.50;5025235;28;20401;-74
2022/03/20 10:12:47;;;;;;;9.95;5.07;;;;;;;3.35;37.21;62343.78;5014429;28;20234;-75
2022/03/20 10:15:34;;;;;;;6.68;4.57;;;;;;;3.53;36.40;62360.31;5026127;28;20210;-74
2022/03/20 10:18:08;;;;;;;5.38;4.30;;;;;;;3.55;37.02;62362.34;5024615;28;20230;-73
2022/03/20 10:20:42;;;;;;;3.55;3.13;;;;;;;3.14;36.08;62320.19;5023670;28;20198;-74
2022/03/20 10:23:36;;;;;;;4.25;3.72;;;;;;;2.80;36.21;62284.75;5023788;28;20233;-74
2022/03/20 10:26:06;;;;;;;4.47;3.30;;;;;;;3.07;36.65;62315.50;5021197;28;20457;-73
2022/03/20 10:28:37;;;;;;;4.03;3.55;;;;;;;3.15;35.99;62321.22;5023150;28;20261;-73
2022/03/20 10:31:07;;;;;;;4.35;3.70;;;;;;;3.09;37.13;62320.09;5023992;28;20413;-73
2022/03/20 10:33:38;;;;;;;5.22;4.28;;;;;;;2.96;37.60;62304.22;5021500;28;20242;-74
2022/03/20 10:36:13;;;;;;;6.50;4.45;;;;;;;3.01;37.49;62311.88;5023619;28;20381;-74
2022/03/20 10:38:41;;;;;;;8.98;4.63;;;;;;;3.38;38.41;62352.41;5024679;28;20232;-73
2022/03/20 10:41:23;;;;;;;5.50;4.32;;;;;;;3.36;36.87;62347.34;5024801;28;20229;-74
2022/03/20 10:43:51;;;;;;;8.30;3.60;;;;;;;3.53;36.75;62362.81;5021991;28;20198;-74
2022/03/20 10:46:20;;;;;;;5.85;3.47;;;;;;;3.87;36.38;62394.22;5024557;28;20206;-74
2022/03/20 10:48:49;;;;;;;6.28;4.38;;;;;;;4.12;36.64;62425.50;5031132;28;20227;-76
2022/03/20 10:51:26;;;;;;;4.63;4.15;;;;;;;4.37;35.76;62448.19;5030627;28;20241;-74
2022/03/20 10:53:58;;;;;;;6.25;4.20;;;;;;;3.88;36.19;62395.25;5027791;28;20190;-74
2022/03/20 10:56:28;;;;;;;6.18;3.65;;;;;;;3.81;35.49;62391.09;5026794;28;20202;-75
2022/03/20 10:58:55;;;;;;;5.13;4.05;;;;;;;3.84;35.62;62393.66;5033069;28;20379;-74
2022/03/20 11:01:35;;;;;;;5.85;3.28;;;;;;;3.90;34.66;62400.34;5023711;28;20237;-72
2022/03/20 11:04:02;;;;;;;4.93;3.70;;;;;;;4.02;34.12;62404.63;5023081;28;20218;-74
2022/03/20 11:06:29;;;;;;;8.05;3.38;;;;;;;3.71;35.50;62380.81;5023246;28;20203;-72
2022/03/20 11:09:02;;;;;;;4.00;3.55;;;;;;;3.70;36.19;62379.25;5023405;28;20253;-73
2022/03/20 11:11:30;;;;;;;4.45;4.05;;;;;;;3.88;37.19;62400.81;5016321;28;20269;-73
2022/03/20 11:14:00;;;;;;;6.38;3.58;;;;;;;4.19;38.16;62425.16;5020391;28;20276;-74
2022/03/20 11:16:29;;;;;;;4.15;3.75;;;;;;;4.39;36.91;62448.25;5023465;28;20245;-74
2022/03/20 11:18:59;;;;;;;6.05;3.90;;;;;;;4.49;37.31;62458.00;5025179;28;20195;-74
2022/03/20 11:21:28;;;;;;;6.30;3.47;;;;;;;4.45;34.23;62451.38;5018354;28;20202;-74
2022/03/20 11:23:59;;;;;;;4.03;3.70;;;;;;;4.22;34.65;62425.72;5022572;28;20210;-75
2022/03/20 11:26:26;;;;;;;4.22;3.60;;;;;;;4.10;34.17;62417.88;5023318;28;20253;-74
2022/03/20 11:28:58;;;;;;;4.72;4.15;;;;;;;3.90;34.71;62400.34;5019250;28;20264;-72
2022/03/20 11:31:26;;;;;;;5.55;3.53;;;;;;;4.04;34.42;62414.75;5022549;28;20387;-74
2022/03/20 11:33:55;;;;;;;4.97;3.95;;;;;;;4.24;34.99;62432.81;5023114;28;20234;-74
2022/03/20 11:36:23;;;;;;;12.90;4.68;;;;;;;4.46;36.78;62457.44;5025672;28;20198;-74
2022/03/20 11:39:12;;;;;;;5.65;3.95;;;;;;;4.65;34.00;62477.53;5024164;28;20243;-74
2022/03/20 11:41:40;;;;;;;5.13;3.78;;;;;;;4.77;33.84;62491.88;5024426;28;20207;-73
2022/03/20 11:44:15;;;;;;;4.40;3.65;;;;;;;4.77;33.78;62486.31;5031518;28;20206;-72
2022/03/20 11:46:43;;;;;;;5.15;4.32;;;;;;;4.66;34.63;62475.50;5038968;28;20210;-73
2022/03/20 11:49:24;;;;;;;4.32;3.92;;;;;;;4.91;35.11;62500.72;5033387;28;20203;-72
2022/03/20 11:52:07;;;;;;;4.43;4.10;;;;;;;4.82;34.19;62494.50;5021247;28;20231;-71
2022/03/20 11:54:53;;;;;;;4.72;4.20;;;;;;;4.69;35.09;62479.13;5032646;28;20202;-72
2022/03/20 11:57:42;;;;;;;4.70;4.30;;;;;;;4.80;34.82;62494.47;5032587;28;20452;-72
2022/03/20 12:00:19;;;;;;;4.13;3.63;;;;;;;4.58;35.35;62470.31;5034926;28;20544;-73
2022/03/20 12:03:25;;;;;;;4.75;4.00;;;;;;;4.66;34.77;62471.00;5016787;28;20214;-73
2022/03/20 12:06:06;;;;;;;6.07;3.70;;;;;;;4.34;35.31;62443.09;5024476;28;20257;-73
2022/03/20 12:08:48;;;;;;;4.03;3.63;;;;;;;4.54;35.24;62466.19;5027005;28;20314;-72